Time;durP1;ratioP1;P1;durP2;ratioP2;P2;SDS_P1;SDS_P2;PMS_P1;PMS_P2;Temp;Humidity;BMP_temperature;BMP_pressure;BME280_temperature;BME280_humidity;BME280_pressure;Samples;Min_cycle;Max_cycle;Signal;HPM_P1;HPM_P2
2021/06/29 00:00:53;;;;;;;5.60;4.42;;;;;;;17.94;75.67;99173.03;1695310;83;20933;-65
2021/06/29 00:03:20;;;;;;;6.55;3.90;;;;;;;17.93;75.66;99168.25;1700809;83;21130;-65
2021/06/29 00:05:49;;;;;;;4.12;3.77;;;;;;;17.93;75.73;99170.04;1679801;83;21503;-65
2021/06/29 00:08:15;;;;;;;5.80;4.08;;;;;;;17.91;75.80;99172.78;1691564;83;21061;-65
2021/06/29 00:10:42;;;;;;;7.28;4.30;;;;;;;17.90;75.85;99170.63;1690493;83;21580;-65
2021/06/29 00:13:08;;;;;;;4.67;3.72;;;;;;;17.90;75.85;99174.58;1688219;84;21001;-65
2021/06/29 00:15:35;;;;;;;4.40;3.62;;;;;;;17.88;75.82;99173.85;1646068;86;21871;-65
2021/06/29 00:18:01;;;;;;;5.05;3.70;;;;;;;17.86;75.82;99169.19;1687446;83;20997;-65
2021/06/29 00:20:28;;;;;;;4.33;4.03;;;;;;;17.83;75.85;99169.41;1646621;86;21483;-65
2021/06/29 00:22:54;;;;;;;4.78;4.37;;;;;;;17.82;75.88;99173.47;1687718;84;21092;-65
2021/06/29 00:25:22;;;;;;;6.95;4.45;;;;;;;17.79;75.89;99166.64;1677961;85;21021;-65
2021/06/29 00:27:48;;;;;;;4.60;3.95;;;;;;;17.79;75.90;99174.53;1682553;83;21234;-65
2021/06/29 00:30:15;;;;;;;4.50;4.10;;;;;;;17.77;75.93;99166.42;1685646;83;21001;-65
2021/06/29 00:32:42;;;;;;;4.50;4.00;;;;;;;17.77;75.96;99165.95;1681096;85;20974;-65
2021/06/29 00:35:09;;;;;;;4.72;3.90;;;;;;;17.76;75.97;99169.53;1679557;84;20990;-65
2021/06/29 00:37:36;;;;;;;7.70;4.30;;;;;;;17.74;76.16;99168.81;1678181;84;21482;-65
2021/06/29 00:40:04;;;;;;;10.10;4.65;;;;;;;17.76;76.26;99168.70;1682919;83;21119;-65
2021/06/29 00:42:31;;;;;;;5.00;3.92;;;;;;;17.76;76.35;99173.48;1685862;83;21403;-65
2021/06/29 00:44:57;;;;;;;7.50;4.97;;;;;;;17.76;76.51;99168.70;1674487;83;21014;-65
2021/06/29 00:47:23;;;;;;;5.00;3.87;;;;;;;17.76;76.50;99176.11;1678673;84;21026;-65
2021/06/29 00:49:50;;;;;;;4.67;3.80;;;;;;;17.76;76.60;99174.80;1687740;83;21518;-65
2021/06/29 00:52:16;;;;;;;5.65;4.10;;;;;;;17.75;76.74;99179.69;1691454;83;21139;-65
2021/06/29 00:54:42;;;;;;;5.25;4.30;;;;;;;17.73;76.77;99176.34;1692222;83;21005;-65
2021/06/29 00:57:10;;;;;;;4.60;4.12;;;;;;;17.73;76.85;99178.13;1684244;84;21565;-65
2021/06/29 00:59:41;;;;;;;5.15;4.08;;;;;;;17.72;76.93;99173.34;1688206;83;21069;-65
2021/06/29 01:02:08;;;;;;;3.80;3.40;;;;;;;17.71;76.95;99174.30;1686409;83;21005;-65
2021/06/29 01:04:35;;;;;;;13.03;5.42;;;;;;;17.70;77.05;99177.87;1686634;84;21478;-65
2021/06/29 01:07:02;;;;;;;4.90;4.10;;;;;;;17.66;77.26;99171.64;1671553;83;21111;-65
2021/06/29 01:09:28;;;;;;;5.28;4.00;;;;;;;17.66;77.48;99179.05;1694902;83;21563;-65
2021/06/29 01:11:54;;;;;;;4.22;3.92;;;;;;;17.68;77.81;99181.09;1700210;83;20989;-65
2021/06/29 01:14:21;;;;;;;4.80;4.40;;;;;;;17.70;77.72;99177.87;1686661;83;21017;-65
2021/06/29 01:16:47;;;;;;;4.15;3.85;;;;;;;17.74;77.76;99175.86;1688727;83;21151;-65
2021/06/29 01:19:19;;;;;;;4.53;3.80;;;;;;;17.76;77.73;99168.22;1689576;83;21069;-65
2021/06/29 01:21:46;;;;;;;4.53;4.12;;;;;;;17.77;77.46;99168.58;1686538;84;21001;-65
2021/06/29 01:24:15;;;;;;;5.58;3.72;;;;;;;17.78;77.27;99168.95;1678445;83;21061;-65
2021/06/29 01:26:48;;;;;;;4.95;4.45;;;;;;;17.83;77.05;99173.83;1693653;83;20998;-65
2021/06/29 01:29:10;;;;;;;4.15;3.75;;;;;;;17.82;76.92;99172.99;1718275;83;21832;-65
2021/06/29 01:31:37;;;;;;;3.75;3.40;;;;;;;17.83;76.87;99177.78;1678095;84;21086;-65
2021/06/29 01:34:04;;;;;;;5.37;3.58;;;;;;;17.81;76.91;99175.73;1685260;83;21123;-65
2021/06/29 01:36:35;;;;;;;4.50;3.90;;;;;;;17.79;77.08;99171.91;1695681;83;21022;-65
2021/06/29 01:39:04;;;;;;;5.22;3.92;;;;;;;17.79;77.18;99175.85;1689082;83;20975;-65
2021/06/29 01:41:31;;;;;;;7.05;4.30;;;;;;;17.78;77.29;99177.31;1689798;83;21730;-65
2021/06/29 01:44:03;;;;;;;4.53;4.00;;;;;;;17.77;77.40;99175.63;1695600;83;21301;-65
2021/06/29 01:46:29;;;;;;;7.53;3.77;;;;;;;17.76;77.46;99174.80;1688549;83;21591;-65
2021/06/29 01:48:54;;;;;;;9.58;4.30;;;;;;;17.76;77.58;99176.11;1683040;83;21568;-65
2021/06/29 01:51:21;;;;;;;5.10;4.58;;;;;;;17.75;77.69;99178.37;1684890;84;21411;-65
2021/06/29 01:53:49;;;;;;;4.45;4.05;;;;;;;17.75;77.87;99171.80;1642773;86;21138;-66
2021/06/29 01:56:16;;;;;;;12.50;4.37;;;;;;;17.76;77.84;99173.95;1687161;84;20986;-66
2021/06/29 01:58:52;;;;;;;6.30;3.65;;;;;;;17.71;77.83;99169.03;1682912;83;21071;-66
2021/06/29 02:01:18;;;;;;;4.47;3.98;;;;;;;17.69;77.82;99164.36;1644568;86;21104;-66
2021/06/29 02:03:44;;;;;;;6.60;3.98;;;;;;;17.68;77.82;99165.80;1690173;84;21049;-66
2021/06/29 02:06:10;;;;;;;4.67;4.17;;;;;;;17.64;77.88;99165.18;1686795;84;21137;-66
2021/06/29 02:08:37;;;;;;;7.28;4.50;;;;;;;17.63;77.93;99167.41;1678599;84;21510;-65
2021/06/29 02:11:03;;;;;;;9.23;4.30;;;;;;;17.63;77.89;99163.47;1687366;84;21044;-65
2021/06/29 02:13:30;;;;;;;9.35;4.70;;;;;;;17.70;77.83;99169.14;1689467;82;20969;-66
2021/06/29 02:15:57;;;;;;;5.35;3.58;;;;;;;17.81;77.57;99172.63;1682568;84;21742;-66
2021/06/29 02:18:23;;;;;;;6.30;4.10;;;;;;;17.98;77.24;99165.27;1683668;83;21826;-66
2021/06/29 02:20:50;;;;;;;5.40;4.40;;;;;;;18.12;76.88;99172.94;1682176;84;21049;-66
2021/06/29 02:23:16;;;;;;;4.92;3.85;;;;;;;18.23;76.38;99165.87;1684202;84;21053;-66
2021/06/29 02:25:43;;;;;;;8.08;4.55;;;;;;;18.28;75.95;99169.95;1683367;83;21561;-63
2021/06/29 02:28:09;;;;;;;4.55;4.15;;;;;;;18.26;75.75;99170.06;1684526;83;21228;-63
2021/06/29 02:30:36;;;;;;;5.53;4.62;;;;;;;18.22;75.74;99174.72;1681576;84;21125;-63
2021/06/29 02:33:04;;;;;;;4.60;3.80;;;;;;;18.17;75.90;99178.69;1686576;83;20958;-64
2021/06/29 02:35:31;;;;;;;6.03;4.37;;;;;;;18.15;76.12;99175.34;1684778;84;21021;-64
2021/06/29 02:37:57;;;;;;;4.47;4.08;;;;;;;18.15;76.39;99173.54;1641861;86;21027;-64
2021/06/29 02:40:24;;;;;;;6.25;4.42;;;;;;;18.19;76.38;99171.48;1652188;86;21758;-64
2021/06/29 02:42:50;;;;;;;4.70;4.05;;;;;;;18.23;76.36;99176.88;1687501;83;21106;-65
2021/06/29 02:45:18;;;;;;;4.90;4.40;;;;;;;18.28;76.23;99177.37;1642396;86;21608;-65
2021/06/29 02:47:45;;;;;;;5.42;4.40;;;;;;;18.33;75.83;99174.38;1686063;84;21073;-64
2021/06/29 02:50:12;;;;;;;5.17;4.25;;;;;;;18.36;75.62;99172.83;1641794;86;21462;-65
2021/06/29 02:52:39;;;;;;;5.75;4.22;;;;;;;18.40;75.49;99176.88;1687497;84;21017;-65
2021/06/29 02:55:07;;;;;;;5.20;4.20;;;;;;;18.42;75.31;99171.85;1641359;86;21166;-65
2021/06/29 02:57:34;;;;;;;8.58;4.30;;;;;;;18.48;75.14;99175.81;1640524;86;21160;-64
2021/06/29 03:00:00;;;;;;;5.97;4.35;;;;;;;18.53;74.92;99167.08;1689416;83;21103;-64
2021/06/29 03:02:26;;;;;;;7.70;4.83;;;;;;;18.56;74.73;99165.52;1680285;83;21521;-65
2021/06/29 03:04:53;;;;;;;5.45;4.00;;;;;;;18.59;74.56;99167.92;1691471;83;21057;-65
2021/06/29 03:07:19;;;;;;;4.50;4.10;;;;;;;18.62;74.46;99162.89;1690336;83;21141;-65
2021/06/29 03:09:46;;;;;;;5.90;4.25;;;;;;;18.64;74.40;99175.47;1681736;83;21068;-65
2021/06/29 03:12:12;;;;;;;4.83;4.40;;;;;;;18.63;74.35;99173.31;1691988;83;22233;-65
2021/06/29 03:14:40;;;;;;;9.10;4.78;;;;;;;18.64;74.25;99172.35;1686094;83;21501;-65
2021/06/29 03:17:07;;;;;;;9.85;5.25;;;;;;;18.66;74.16;99174.87;1683691;83;21010;-65
2021/06/29 03:19:34;;;;;;;6.90;4.47;;;;;;;18.77;73.97;99165.64;1682851;83;21799;-65
2021/06/29 03:22:01;;;;;;;6.60;4.03;;;;;;;18.88;73.80;99177.47;1692117;83;21441;-65
2021/06/29 03:24:30;;;;;;;5.45;3.83;;;;;;;18.98;73.68;99181.53;1686085;83;21076;-64
2021/06/29 03:26:56;;;;;;;5.45;4.35;;;;;;;19.07;73.48;99179.45;1685771;83;20989;-65
2021/06/29 03:29:23;;;;;;;6.87;4.80;;;;;;;19.17;73.06;99177.77;1684295;83;21168;-65
2021/06/29 03:31:49;;;;;;;4.78;4.33;;;;;;;19.26;72.33;99181.80;1682581;83;21084;-65
2021/06/29 03:34:16;;;;;;;5.55;3.92;;;;;;;19.39;71.85;99190.00;1683443;83;21517;-65
2021/06/29 03:36:42;;;;;;;4.80;4.35;;;;;;;19.64;71.44;99184.90;1685890;83;20993;-65
2021/06/29 03:39:09;;;;;;;7.40;4.30;;;;;;;19.92;70.71;99183.79;1686753;83;21144;-65
2021/06/29 03:41:35;;;;;;;6.90;4.70;;;;;;;20.18;70.02;99176.78;1682315;83;21088;-65
2021/06/29 03:44:02;;;;;;;5.97;4.67;;;;;;;20.46;69.24;99174.77;1697600;83;21593;-64
2021/06/29 03:46:28;;;;;;;7.25;5.22;;;;;;;20.80;68.23;99175.29;1682719;84;21072;-64
2021/06/29 03:48:55;;;;;;;5.35;4.85;;;;;;;21.11;67.22;99179.19;1682200;83;21066;-64
2021/06/29 03:51:21;;;;;;;6.60;4.50;;;;;;;21.43;66.22;99175.83;1684581;83;21157;-65
2021/06/29 03:53:48;;;;;;;5.58;4.62;;;;;;;21.94;64.89;99186.59;1683106;83;21041;-65
2021/06/29 03:56:29;;;;;;;5.40;4.90;;;;;;;22.40;63.56;99174.34;1687076;83;21493;-65
2021/06/29 03:59:00;;;;;;;7.83;5.00;;;;;;;22.96;62.11;99178.22;1680486;83;21632;-65
2021/06/29 04:01:26;;;;;;;5.28;4.75;;;;;;;23.66;60.45;99176.58;1686336;83;21117;-66
2021/06/29 04:03:56;;;;;;;4.70;4.30;;;;;;;24.19;58.09;99179.59;1677678;84;20958;-66
2021/06/29 04:06:27;;;;;;;9.85;5.42;;;;;;;24.59;56.76;99179.84;1691767;83;21001;-66
2021/06/29 04:08:54;;;;;;;4.92;4.12;;;;;;;24.77;55.81;99174.45;1681388;83;21164;-66
2021/06/29 04:11:22;;;;;;;8.83;5.12;;;;;;;25.03;54.35;99173.03;1678112;84;20994;-66
2021/06/29 04:13:49;;;;;;;8.10;4.67;;;;;;;25.47;53.82;99170.11;1684072;83;21509;-66
2021/06/29 04:16:16;;;;;;;5.70;4.25;;;;;;;25.91;52.20;99171.97;1678328;84;21113;-66
2021/06/29 04:18:43;;;;;;;5.53;5.08;;;;;;;26.22;51.12;99174.73;1678951;84;20962;-66
2021/06/29 04:21:10;;;;;;;5.22;4.80;;;;;;;26.54;50.15;99177.34;1689762;83;21115;-66
2021/06/29 04:23:36;;;;;;;10.03;4.22;;;;;;;26.86;48.97;99175.03;1682803;83;21061;-66
2021/06/29 04:26:03;;;;;;;6.95;4.42;;;;;;;27.03;48.12;99169.13;1679994;83;21671;-67
2021/06/29 04:28:29;;;;;;;5.25;4.75;;;;;;;27.24;47.75;99169.33;1682385;83;20998;-66
2021/06/29 04:30:56;;;;;;;18.67;6.60;;;;;;;27.48;47.36;99179.01;1683803;83;21053;-66
2021/06/29 04:33:22;;;;;;;5.05;4.55;;;;;;;27.72;46.71;99178.85;1686758;83;21134;-66
2021/06/29 04:35:48;;;;;;;5.22;4.25;;;;;;;27.99;45.69;99187.27;1687296;83;21038;-65
2021/06/29 04:38:14;;;;;;;14.50;5.30;;;;;;;28.24;45.46;99179.88;1678145;85;21078;-66
2021/06/29 04:40:41;;;;;;;8.13;4.55;;;;;;;28.62;44.67;99176.09;1683689;83;21053;-66
2021/06/29 04:43:07;;;;;;;6.00;4.15;;;;;;;28.92;43.79;99177.42;1683807;83;21553;-66
2021/06/29 04:45:34;;;;;;;5.45;4.60;;;;;;;29.10;43.29;99186.70;1685635;84;21142;-66
2021/06/29 04:48:01;;;;;;;7.05;6.37;;;;;;;29.17;42.83;99180.09;1682439;84;20985;-66
2021/06/29 04:50:27;;;;;;;5.62;4.70;;;;;;;29.27;42.77;99185.95;1642497;86;21582;-66
2021/06/29 04:52:53;;;;;;;11.80;5.10;;;;;;;29.39;42.29;99180.91;1687049;84;21050;-66
2021/06/29 04:55:20;;;;;;;8.93;4.78;;;;;;;29.51;41.67;99190.14;1682732;84;21171;-64
2021/06/29 04:57:46;;;;;;;6.05;4.12;;;;;;;29.44;41.77;99189.23;1680290;84;21751;-64
2021/06/29 05:00:16;;;;;;;6.42;4.80;;;;;;;29.48;41.97;99191.34;1682543;84;21002;-65
2021/06/29 05:02:43;;;;;;;5.42;4.10;;;;;;;29.69;41.84;99194.53;1684626;83;20970;-65
2021/06/29 05:05:10;;;;;;;7.78;4.50;;;;;;;29.79;41.48;99184.30;1684484;83;21001;-65
2021/06/29 05:07:40;;;;;;;6.83;4.95;;;;;;;29.76;41.02;99181.20;1679332;84;21026;-65
2021/06/29 05:10:08;;;;;;;9.43;5.20;;;;;;;29.72;41.16;99179.92;1688608;82;21754;-65
2021/06/29 05:12:36;;;;;;;5.65;4.92;;;;;;;29.72;41.16;99186.11;1685117;83;20950;-65
2021/06/29 05:15:04;;;;;;;11.75;8.80;;;;;;;29.82;41.18;99181.23;1688555;83;21053;-65
2021/06/29 05:17:31;;;;;;;7.42;5.40;;;;;;;29.99;40.92;99188.50;1685017;84;21013;-65
2021/06/29 05:19:57;;;;;;;11.45;7.03;;;;;;;30.06;41.00;99187.22;1668129;83;21022;-66
2021/06/29 05:22:23;;;;;;;6.22;4.85;;;;;;;30.00;41.11;99183.45;1670722;84;21604;-66
2021/06/29 05:24:50;;;;;;;10.68;5.50;;;;;;;29.98;41.15;99177.97;1664144;85;21432;-66
2021/06/29 05:27:16;;;;;;;9.25;4.30;;;;;;;30.02;41.33;99178.73;1676444;83;21026;-66
2021/06/29 05:29:43;;;;;;;8.45;4.20;;;;;;;30.27;40.89;99176.94;1684257;84;21104;-66
2021/06/29 05:32:10;;;;;;;4.78;4.33;;;;;;;30.62;40.55;99167.88;1693275;83;20998;-66
2021/06/29 05:34:37;;;;;;;7.45;4.80;;;;;;;31.05;39.99;99177.02;1696303;83;21513;-66
2021/06/29 05:37:04;;;;;;;9.03;4.30;;;;;;;31.37;39.10;99179.02;1682767;83;20947;-66
2021/06/29 05:39:30;;;;;;;6.30;4.55;;;;;;;31.45;38.97;99173.94;1682662;83;21011;-66
2021/06/29 05:41:57;;;;;;;5.28;3.85;;;;;;;31.52;38.48;99173.44;1692041;83;20980;-66
2021/06/29 05:44:23;;;;;;;9.10;5.17;;;;;;;31.41;38.22;99174.86;1684798;84;21458;-66
2021/06/29 05:46:52;;;;;;;4.80;4.33;;;;;;;31.30;38.77;99178.16;1690177;83;21089;-66
2021/06/29 05:49:18;;;;;;;9.23;5.33;;;;;;;31.50;38.85;99172.81;1688854;83;21469;-66
2021/06/29 05:51:46;;;;;;;7.87;4.12;;;;;;;31.77;38.10;99174.52;1685306;83;21041;-66
2021/06/29 05:54:16;;;;;;;8.45;4.33;;;;;;;32.02;37.69;99179.25;1688295;83;21700;-66
2021/06/29 05:56:43;;;;;;;8.63;4.20;;;;;;;32.04;37.02;99182.56;1697591;83;21415;-66
2021/06/29 05:59:10;;;;;;;14.35;5.58;;;;;;;32.09;37.12;99181.42;1682384;83;21765;-66
2021/06/29 06:01:36;;;;;;;17.65;6.62;;;;;;;32.08;37.25;99182.45;1677556;85;21085;-66
2021/06/29 06:04:03;;;;;;;13.05;6.40;;;;;;;31.88;37.60;99182.98;1678103;85;20994;-66
2021/06/29 06:06:29;;;;;;;4.92;3.12;;;;;;;31.84;37.77;99186.09;1687773;83;21013;-67
2021/06/29 06:08:55;;;;;;;9.20;4.80;;;;;;;31.65;36.98;99180.67;1678124;84;21073;-66
2021/06/29 06:11:22;;;;;;;4.37;3.98;;;;;;;31.42;37.16;99179.20;1681933;84;21192;-66
2021/06/29 06:13:48;;;;;;;5.65;4.30;;;;;;;31.22;37.71;99178.85;1678522;84;21073;-66
2021/06/29 06:16:14;;;;;;;5.83;4.12;;;;;;;31.06;38.03;99184.88;1688937;83;21537;-65
2021/06/29 06:18:42;;;;;;;4.25;3.87;;;;;;;30.86;38.63;99183.16;1679966;84;20998;-65
2021/06/29 06:21:10;;;;;;;4.30;3.85;;;;;;;30.64;39.07;99178.41;1690159;82;21561;-65
2021/06/29 06:23:38;;;;;;;6.00;4.17;;;;;;;30.47;38.86;99185.42;1690645;83;21145;-65
2021/06/29 06:26:05;;;;;;;4.85;4.08;;;;;;;30.24;39.57;99188.06;1682429;84;21105;-66
2021/06/29 06:28:31;;;;;;;6.10;3.40;;;;;;;30.13;39.87;99190.28;1682961;84;21063;-66
2021/06/29 06:30:57;;;;;;;5.08;3.60;;;;;;;30.11;40.12;99191.50;1687094;83;21556;-66
2021/06/29 06:33:24;;;;;;;6.67;3.83;;;;;;;30.03;40.35;99194.31;1680851;84;21517;-67
2021/06/29 06:35:50;;;;;;;4.30;3.90;;;;;;;29.83;40.84;99192.78;1680891;84;21112;-66
2021/06/29 06:38:16;;;;;;;3.70;3.40;;;;;;;29.66;41.26;99195.42;1682750;83;21026;-66
2021/06/29 06:40:43;;;;;;;6.22;3.65;;;;;;;29.55;41.35;99195.44;1682334;83;20954;-66
2021/06/29 06:43:10;;;;;;;3.72;3.40;;;;;;;29.35;41.62;99195.22;1686193;83;21052;-66
2021/06/29 06:45:37;;;;;;;11.38;7.60;;;;;;;29.24;42.22;99194.87;1682806;83;21009;-66
2021/06/29 06:48:05;;;;;;;7.20;4.50;;;;;;;29.16;42.60;99186.97;1678679;85;21779;-66
2021/06/29 06:50:31;;;;;;;6.20;3.40;;;;;;;29.13;42.07;99192.19;1685479;83;20986;-65
2021/06/29 06:52:58;;;;;;;5.45;3.55;;;;;;;28.99;41.27;99189.84;1684489;84;21655;-65
2021/06/29 06:55:25;;;;;;;4.15;2.85;;;;;;;28.75;41.89;99189.66;1684468;84;21079;-65
2021/06/29 06:57:54;;;;;;;3.08;2.87;;;;;;;28.49;42.22;99196.49;1691861;83;20937;-65
2021/06/29 07:00:22;;;;;;;6.08;2.85;;;;;;;28.26;41.97;99191.22;1685798;83;21861;-65
2021/06/29 07:02:48;;;;;;;6.05;3.85;;;;;;;27.99;42.50;99200.64;1683964;84;21009;-65
2021/06/29 07:05:15;;;;;;;3.65;3.27;;;;;;;27.76;43.88;99199.37;1682608;83;21034;-65
2021/06/29 07:07:41;;;;;;;4.47;4.05;;;;;;;27.61;43.93;99198.47;1684102;83;21008;-65
2021/06/29 07:10:09;;;;;;;3.02;2.72;;;;;;;27.44;44.34;99204.41;1687875;83;21474;-65
2021/06/29 07:12:36;;;;;;;5.60;2.72;;;;;;;27.32;43.76;99203.16;1679534;83;21142;-66
2021/06/29 07:15:05;;;;;;;3.33;2.90;;;;;;;27.19;43.41;99192.22;1684290;83;21041;-66
2021/06/29 07:17:34;;;;;;;4.35;3.27;;;;;;;27.11;43.74;99206.46;1680170;84;20998;-66
2021/06/29 07:23:19;;;;;;;4.40;2.42;;;;;;;26.98;44.29;99206.17;1684298;83;20977;-67
2021/06/29 07:25:46;;;;;;;5.72;2.80;;;;;;;26.87;44.54;99206.05;1670774;84;21146;-65
2021/06/29 07:28:12;;;;;;;3.52;3.00;;;;;;;26.78;44.54;99198.27;1687391;83;21167;-66
2021/06/29 07:30:39;;;;;;;4.50;2.77;;;;;;;26.70;45.11;99193.78;1707245;83;21448;-66
2021/06/29 07:33:06;;;;;;;3.67;3.30;;;;;;;26.66;45.33;99202.63;1704023;83;21011;-66
2021/06/29 07:35:32;;;;;;;5.92;2.85;;;;;;;26.66;45.54;99205.30;1691300;83;21098;-66
2021/06/29 07:38:04;;;;;;;7.37;2.50;;;;;;;26.70;44.99;99203.13;1697690;83;21196;-66
2021/06/29 07:40:33;;;;;;;3.12;2.70;;;;;;;26.67;44.40;99206.96;1683484;83;20998;-65
2021/06/29 07:42:57;;;;;;;3.75;2.87;;;;;;;26.69;44.98;99202.29;1706205;83;20937;-65
2021/06/29 07:45:27;;;;;;;6.28;2.95;;;;;;;26.70;45.22;99202.63;1713656;83;20936;-65
2021/06/29 07:47:55;;;;;;;5.20;2.98;;;;;;;26.71;45.82;99202.95;1695958;83;20971;-67
2021/06/29 07:50:21;;;;;;;3.22;3.02;;;;;;;26.77;46.29;99197.44;1707521;83;21198;-67
2021/06/29 07:52:47;;;;;;;11.63;3.22;;;;;;;26.82;46.29;99200.89;1707672;83;21433;-66
2021/06/29 07:55:14;;;;;;;8.23;3.35;;;;;;;26.85;46.36;99205.89;1698424;83;21045;-66
2021/06/29 07:57:41;;;;;;;3.05;2.52;;;;;;;26.88;45.95;99198.38;1687812;83;20955;-66
2021/06/29 08:00:09;;;;;;;2.70;2.50;;;;;;;26.94;45.96;99199.05;1701263;83;20905;-66
2021/06/29 08:02:40;;;;;;;2.67;2.47;;;;;;;27.06;45.39;99202.14;1698454;83;21192;-66
2021/06/29 08:05:08;;;;;;;3.77;3.30;;;;;;;27.17;44.01;99208.94;1715605;83;21004;-66
2021/06/29 08:07:34;;;;;;;3.58;2.60;;;;;;;27.19;43.65;99199.72;1697603;83;21019;-66
2021/06/29 08:10:01;;;;;;;3.83;2.70;;;;;;;27.22;43.83;99206.05;1683528;83;21026;-66
2021/06/29 08:12:27;;;;;;;3.62;2.45;;;;;;;27.27;44.19;99201.02;1706492;83;21670;-66
2021/06/29 08:14:55;;;;;;;7.30;3.12;;;;;;;27.40;44.60;99207.09;1696725;83;21956;-67
2021/06/29 08:17:23;;;;;;;3.15;2.85;;;;;;;27.54;44.63;99201.52;1710097;83;21461;-66
2021/06/29 08:19:51;;;;;;;4.58;2.72;;;;;;;27.63;43.86;99198.62;1692011;83;21211;-66
2021/06/29 08:22:19;;;;;;;12.18;3.40;;;;;;;27.73;44.21;99193.87;1697468;83;21038;-66
2021/06/29 08:24:46;;;;;;;5.87;2.92;;;;;;;27.91;43.76;99189.54;1688073;83;21061;-66
2021/06/29 08:27:14;;;;;;;2.75;2.55;;;;;;;28.07;43.45;99188.04;1665158;83;21091;-66
2021/06/29 08:29:43;;;;;;;7.28;4.85;;;;;;;28.19;43.64;99191.08;1694772;83;21053;-65
2021/06/29 08:32:10;;;;;;;5.00;2.65;;;;;;;28.25;43.28;99189.05;1692810;83;21487;-65
2021/06/29 08:34:37;;;;;;;5.62;3.20;;;;;;;28.24;43.13;99195.92;1682562;83;21053;-66
2021/06/29 08:37:03;;;;;;;4.70;2.85;;;;;;;28.15;43.19;99187.14;1684962;83;21130;-66
2021/06/29 08:39:30;;;;;;;3.75;2.60;;;;;;;28.07;43.53;99188.55;1690541;83;21128;-66
2021/06/29 08:41:56;;;;;;;3.95;3.25;;;;;;;28.03;43.29;99193.92;1699941;83;20940;-65
2021/06/29 08:44:24;;;;;;;8.40;2.80;;;;;;;28.10;43.04;99190.86;1693551;83;21691;-65
2021/06/29 08:46:51;;;;;;;3.25;2.92;;;;;;;28.20;42.62;99186.59;1705433;83;20961;-65
2021/06/29 08:49:17;;;;;;;15.80;5.05;;;;;;;28.29;42.42;99189.52;1694429;83;21028;-66
2021/06/29 08:51:44;;;;;;;2.90;2.47;;;;;;;28.29;42.45;99191.69;1663969;84;21124;-65
2021/06/29 08:54:10;;;;;;;4.00;2.42;;;;;;;28.33;42.46;99187.64;1691199;84;21061;-66
2021/06/29 08:56:38;;;;;;;3.08;2.30;;;;;;;28.45;41.77;99191.50;1714989;83;20981;-66
2021/06/29 08:59:04;;;;;;;4.97;2.30;;;;;;;28.61;40.62;99186.47;1666025;84;21178;-66
2021/06/29 09:01:32;;;;;;;2.47;2.27;;;;;;;28.72;40.09;99187.34;1706987;83;21009;-66
2021/06/29 09:03:59;;;;;;;4.08;2.83;;;;;;;28.73;39.69;99190.86;1706268;83;21807;-67
2021/06/29 09:06:35;;;;;;;5.40;2.37;;;;;;;28.67;39.98;99188.91;1689720;83;21435;-67
2021/06/29 09:09:29;;;;;;;6.70;2.87;;;;;;;28.57;39.39;99185.20;1683385;83;21258;-66
2021/06/29 09:11:56;;;;;;;4.10;2.47;;;;;;;28.53;39.72;99185.75;1711509;83;20991;-66
2021/06/29 09:14:31;;;;;;;6.97;2.90;;;;;;;28.52;40.24;99177.40;1691456;83;21113;-66
2021/06/29 09:17:19;;;;;;;4.35;2.72;;;;;;;28.46;40.83;99184.31;1695886;83;21156;-66
2021/06/29 09:19:45;;;;;;;9.28;3.98;;;;;;;28.31;41.63;99184.83;1692520;83;21001;-67
2021/06/29 09:22:31;;;;;;;2.50;2.30;;;;;;;28.10;42.31;99181.00;1693635;83;21132;-67
2021/06/29 09:25:00;;;;;;;7.80;2.83;;;;;;;27.96;42.17;99171.13;1693293;83;21002;-66
2021/06/29 09:27:46;;;;;;;4.12;2.33;;;;;;;27.98;42.31;99166.90;1695094;83;21104;-66
2021/06/29 09:30:40;;;;;;;4.37;2.55;;;;;;;28.14;41.48;99160.08;1686717;83;21504;-66
2021/06/29 09:33:20;;;;;;;2.80;2.50;;;;;;;28.40;41.59;99164.47;1683363;84;21071;-66
2021/06/29 09:35:53;;;;;;;4.87;3.05;;;;;;;28.68;41.04;99151.77;1682892;83;21210;-67
2021/06/29 09:38:24;;;;;;;5.47;3.22;;;;;;;28.86;41.31;99154.07;1696777;83;21066;-66
2021/06/29 09:41:01;;;;;;;2.80;2.58;;;;;;;28.91;40.20;99152.50;1701596;83;21192;-66
2021/06/29 09:43:30;;;;;;;4.30;2.27;;;;;;;28.89;38.14;99149.69;1695307;83;21307;-66
2021/06/29 09:46:01;;;;;;;12.28;3.10;;;;;;;28.80;36.96;99141.75;1713164;83;21031;-67
2021/06/29 09:48:46;;;;;;;4.80;2.52;;;;;;;28.73;38.34;99137.33;1692662;83;20989;-66
2021/06/29 09:51:17;;;;;;;5.58;2.47;;;;;;;28.73;39.34;99140.00;1692128;83;21113;-65
2021/06/29 09:53:46;;;;;;;2.37;2.17;;;;;;;28.67;39.29;99138.06;1705758;83;21023;-66
2021/06/29 09:56:25;;;;;;;3.77;2.40;;;;;;;28.67;39.29;99138.06;1708180;83;21147;-66
2021/06/29 09:58:54;;;;;;;3.40;2.12;;;;;;;28.68;38.84;99142.41;1700420;83;21079;-66
2021/06/29 10:01:25;;;;;;;2.95;2.20;;;;;;;28.68;38.01;99133.04;1706200;83;21461;-66
2021/06/29 10:03:51;;;;;;;4.85;3.02;;;;;;;28.70;37.73;99135.02;1701680;83;20953;-67
2021/06/29 10:06:23;;;;;;;6.87;3.50;;;;;;;28.67;37.41;99127.36;1706348;83;21564;-66
2021/06/29 10:09:06;;;;;;;4.28;2.50;;;;;;;28.71;37.44;99123.30;1714760;83;21868;-66
2021/06/29 10:11:51;;;;;;;4.30;2.20;;;;;;;28.69;37.44;99116.80;1712182;83;21160;-66
2021/06/29 10:14:15;;;;;;;2.57;2.37;;;;;;;28.69;38.13;99124.83;1687821;83;21003;-66
2021/06/29 10:16:47;;;;;;;2.77;2.40;;;;;;;28.74;38.06;99122.94;1687181;83;20958;-68
2021/06/29 10:22:04;;;;;;;8.03;2.55;;;;;;;28.76;38.69;99130.27;1682791;84;21869;-66
2021/06/29 10:24:34;;;;;;;3.98;2.27;;;;;;;28.80;38.54;99111.48;1684518;84;21089;-65
2021/06/29 10:27:04;;;;;;;6.62;2.45;;;;;;;28.80;37.64;99123.02;1688509;83;21053;-66
2021/06/29 10:29:31;;;;;;;2.30;2.10;;;;;;;28.71;37.77;99118.78;1685479;83;21041;-66
2021/06/29 10:32:04;;;;;;;3.70;2.05;;;;;;;28.64;37.88;99111.68;1683827;83;21078;-66
2021/06/29 10:34:29;;;;;;;3.50;2.15;;;;;;;28.56;36.95;99112.64;1679632;81;21141;-66
2021/06/29 10:36:56;;;;;;;2.55;2.20;;;;;;;28.50;37.13;99113.88;1691725;83;21037;-66
2021/06/29 10:39:26;;;;;;;4.33;3.00;;;;;;;28.43;37.51;99107.10;1687400;83;21533;-66
2021/06/29 10:42:07;;;;;;;3.17;2.60;;;;;;;28.37;37.06;99110.03;1690518;83;21088;-67
2021/06/29 10:44:43;;;;;;;4.83;2.02;;;;;;;28.34;36.85;99102.88;1685769;83;20970;-67
2021/06/29 10:47:30;;;;;;;2.40;1.92;;;;;;;28.33;37.21;99090.53;1690957;83;21507;-66
2021/06/29 10:49:59;;;;;;;3.27;2.20;;;;;;;28.38;36.97;99092.94;1683951;84;21179;-67
2021/06/29 10:52:32;;;;;;;5.53;2.20;;;;;;;28.44;36.39;99098.89;1683841;83;21205;-66
2021/06/29 10:55:28;;;;;;;3.83;2.10;;;;;;;28.45;37.16;99095.70;1684188;84;21596;-67
2021/06/29 10:57:59;;;;;;;2.00;1.80;;;;;;;28.44;38.61;99092.71;1693012;83;20949;-66
2021/06/29 11:00:31;;;;;;;3.30;2.45;;;;;;;28.45;38.98;99095.20;1686221;83;21146;-67
2021/06/29 11:03:02;;;;;;;7.47;3.13;;;;;;;28.49;38.44;99090.31;1707972;83;20985;-66
2021/06/29 11:05:33;;;;;;;4.92;2.83;;;;;;;28.54;38.18;99085.23;1681489;83;21065;-67
2021/06/29 11:08:17;;;;;;;3.02;2.17;;;;;;;28.52;37.62;99083.77;1695368;83;21481;-67
2021/06/29 11:10:48;;;;;;;3.00;2.20;;;;;;;28.44;38.11;99083.34;1688499;83;21438;-67
2021/06/29 11:13:21;;;;;;;9.95;2.85;;;;;;;28.43;37.30;99076.34;1688456;83;21095;-66
2021/06/29 11:15:51;;;;;;;5.37;2.22;;;;;;;28.48;37.79;99076.61;1685323;83;21043;-67
2021/06/29 11:18:22;;;;;;;4.03;1.90;;;;;;;28.56;37.44;99078.36;1680050;83;21009;-66
2021/06/29 11:20:52;;;;;;;5.60;2.27;;;;;;;28.60;37.71;99068.41;1666984;83;21542;-66
2021/06/29 11:23:32;;;;;;;3.58;2.33;;;;;;;28.65;37.31;99078.55;1686025;83;21064;-67
2021/06/29 11:26:16;;;;;;;3.00;2.08;;;;;;;28.67;37.11;99073.34;1684655;84;21136;-67
2021/06/29 11:28:49;;;;;;;5.35;2.90;;;;;;;28.74;37.88;99070.74;1687498;83;21056;-67
2021/06/29 11:31:32;;;;;;;6.37;3.20;;;;;;;28.83;38.30;99071.47;1683681;84;21552;-66
2021/06/29 11:34:07;;;;;;;3.92;3.30;;;;;;;28.91;37.82;99068.68;1685963;83;21096;-66
2021/06/29 11:36:38;;;;;;;5.80;2.00;;;;;;;28.94;37.16;99073.15;1681309;83;21221;-67
2021/06/29 11:39:22;;;;;;;2.60;2.20;;;;;;;29.00;36.42;99072.88;1686121;83;21783;-67
2021/06/29 11:42:20;;;;;;;3.17;2.00;;;;;;;29.08;36.25;99072.76;1681418;83;20977;-67
2021/06/29 11:44:50;;;;;;;5.20;2.92;;;;;;;29.17;36.62;99077.48;1686709;83;21096;-67
2021/06/29 11:47:21;;;;;;;7.37;3.62;;;;;;;29.26;36.32;99063.75;1687857;83;21009;-67